Time;durP1;ratioP1;P1;durP2;ratioP2;P2;SDS_P1;SDS_P2;PMS_P1;PMS_P2;Temp;Humidity;BMP_temperature;BMP_pressure;BME280_temperature;BME280_humidity;BME280_pressure;Samples;Min_cycle;Max_cycle;Signal;HPM_P1;HPM_P2
2023/09/18 00:00:49;;;;;;;3.80;2.58;;;19.60;63.70;;;;;;5074888;28;20028;-62
2023/09/18 00:03:20;;;;;;;3.47;2.10;;;19.50;63.70;;;;;;5066228;28;20025;-63
2023/09/18 00:05:49;;;;;;;6.35;2.65;;;19.50;63.70;;;;;;5058713;28;20112;-62
2023/09/18 00:08:15;;;;;;;3.38;2.45;;;19.50;64.20;;;;;;5063197;28;20032;-63
2023/09/18 00:10:41;;;;;;;5.88;2.20;;;19.40;64.10;;;;;;5055939;28;20029;-61
2023/09/18 00:13:07;;;;;;;3.63;2.40;;;19.40;64.20;;;;;;5063426;28;20550;-62
2023/09/18 00:15:33;;;;;;;7.85;2.17;;;19.40;64.30;;;;;;5060784;28;20112;-61
2023/09/18 00:17:58;;;;;;;2.70;2.17;;;19.40;64.40;;;;;;5063287;28;20029;-62
2023/09/18 00:20:27;;;;;;;4.38;2.53;;;19.40;64.40;;;;;;5071705;28;20388;-62
2023/09/18 00:22:56;;;;;;;5.03;2.50;;;19.30;64.40;;;;;;5069746;28;20032;-62
2023/09/18 00:25:22;;;;;;;4.15;2.55;;;19.30;64.60;;;;;;5055334;28;20035;-62
2023/09/18 00:27:48;;;;;;;2.20;1.92;;;19.30;64.50;;;;;;5057225;28;20042;-62
2023/09/18 00:30:14;;;;;;;5.82;2.30;;;19.30;64.50;;;;;;5068050;28;20028;-62
2023/09/18 00:32:40;;;;;;;3.70;2.30;;;19.20;64.60;;;;;;5063231;28;20035;-62
2023/09/18 00:35:06;;;;;;;4.07;2.35;;;19.20;64.80;;;;;;5073557;28;20445;-62
2023/09/18 00:37:32;;;;;;;3.80;2.40;;;19.20;64.80;;;;;;5071701;28;20066;-61
2023/09/18 00:39:57;;;;;;;2.78;2.33;;;19.20;64.80;;;;;;5071966;28;20067;-61
2023/09/18 00:42:24;;;;;;;4.40;2.38;;;19.10;64.70;;;;;;5070127;28;20047;-63
2023/09/18 00:44:50;;;;;;;2.95;2.53;;;19.10;64.70;;;;;;5067560;28;20024;-62
2023/09/18 00:47:17;;;;;;;3.78;2.50;;;19.10;64.80;;;;;;5068901;28;20020;-63
2023/09/18 00:49:48;;;;;;;5.53;2.22;;;19.10;64.90;;;;;;5075213;28;20111;-62
2023/09/18 00:52:15;;;;;;;3.10;2.45;;;19.10;65.00;;;;;;5071187;28;20028;-61
2023/09/18 00:54:41;;;;;;;4.43;2.58;;;19.10;64.70;;;;;;5067303;28;20090;-61
2023/09/18 00:57:10;;;;;;;5.88;2.83;;;19.10;64.70;;;;;;5064689;28;20468;-61
2023/09/18 00:59:36;;;;;;;2.97;2.30;;;19.10;64.70;;;;;;5063585;28;20055;-61
2023/09/18 01:02:03;;;;;;;3.08;2.00;;;19.10;64.70;;;;;;5062696;28;20028;-63
2023/09/18 01:04:30;;;;;;;5.47;2.35;;;19.00;64.70;;;;;;5059423;28;20017;-61
2023/09/18 01:06:57;;;;;;;5.90;2.20;;;19.00;64.80;;;;;;5064838;28;20087;-61
2023/09/18 01:09:23;;;;;;;3.28;2.42;;;18.90;64.90;;;;;;5067055;28;20374;-60
2023/09/18 01:12:08;;;;;;;3.58;2.63;;;18.90;64.90;;;;;;5063633;28;20056;-61
2023/09/18 01:14:34;;;;;;;3.17;2.35;;;18.90;65.50;;;;;;5064635;28;20035;-61
2023/09/18 01:17:03;;;;;;;5.32;2.90;;;18.80;64.80;;;;;;5070635;28;20036;-61
2023/09/18 01:19:44;;;;;;;4.32;2.47;;;18.80;65.00;;;;;;5068264;28;20089;-61
2023/09/18 01:22:12;;;;;;;3.97;2.35;;;18.80;65.60;;;;;;5070402;28;20434;-63
2023/09/18 01:24:40;;;;;;;2.90;2.25;;;18.80;65.10;;;;;;5058807;28;20035;-61
2023/09/18 01:27:09;;;;;;;6.20;2.67;;;18.70;65.30;;;;;;5059828;28;20038;-62
2023/09/18 01:29:35;;;;;;;3.17;2.58;;;18.70;65.50;;;;;;5066132;28;20025;-62
2023/09/18 01:32:01;;;;;;;3.10;2.15;;;18.70;65.50;;;;;;5065642;28;20031;-62
2023/09/18 01:34:33;;;;;;;5.90;2.33;;;18.70;65.50;;;;;;5059229;28;20562;-62
2023/09/18 01:37:00;;;;;;;4.25;2.40;;;18.70;65.90;;;;;;5062577;28;20017;-62
2023/09/18 01:39:31;;;;;;;2.42;2.22;;;18.60;65.60;;;;;;5070028;28;20028;-61
2023/09/18 01:42:09;;;;;;;4.90;2.53;;;18.60;66.00;;;;;;5053665;28;20027;-62
2023/09/18 01:44:39;;;;;;;3.92;2.67;;;18.60;66.00;;;;;;5059070;28;20051;-61
2023/09/18 01:47:08;;;;;;;3.40;2.90;;;18.60;66.20;;;;;;5065357;28;20025;-61
2023/09/18 01:49:36;;;;;;;5.43;2.40;;;18.50;66.40;;;;;;5067523;28;20055;-61
2023/09/18 01:52:03;;;;;;;5.32;2.65;;;18.50;66.50;;;;;;5065785;28;20020;-61
2023/09/18 01:54:30;;;;;;;4.07;2.53;;;18.60;66.60;;;;;;5057409;28;20115;-61
2023/09/18 01:56:56;;;;;;;2.70;2.50;;;18.60;66.80;;;;;;5061877;28;20028;-61
2023/09/18 01:59:22;;;;;;;3.05;2.65;;;18.60;66.80;;;;;;5062694;28;20568;-61
2023/09/18 02:01:49;;;;;;;3.13;2.40;;;18.60;67.00;;;;;;5070520;28;20056;-61
2023/09/18 02:04:15;;;;;;;5.70;2.95;;;18.60;67.00;;;;;;5059146;28;20170;-62
2023/09/18 02:06:40;;;;;;;6.18;2.80;;;18.60;67.30;;;;;;5059517;28;20492;-61
2023/09/18 02:09:09;;;;;;;3.00;2.45;;;18.60;67.30;;;;;;5064895;28;20094;-61
2023/09/18 02:11:38;;;;;;;3.15;2.85;;;18.70;67.50;;;;;;5063320;28;20064;-61
2023/09/18 02:14:05;;;;;;;4.07;2.72;;;18.70;67.50;;;;;;5055908;28;20043;-62
2023/09/18 02:16:32;;;;;;;3.90;2.35;;;18.70;67.10;;;;;;5055786;28;20021;-62
2023/09/18 02:18:58;;;;;;;4.68;3.83;;;18.70;67.10;;;;;;5058867;28;20043;-62
2023/09/18 02:21:26;;;;;;;6.55;2.80;;;18.70;67.00;;;;;;5061252;28;20017;-62
2023/09/18 02:23:52;;;;;;;2.72;2.53;;;18.80;67.40;;;;;;5069364;28;20056;-61
2023/09/18 02:26:19;;;;;;;6.00;2.83;;;18.70;67.70;;;;;;5064233;28;20074;-61
2023/09/18 02:28:45;;;;;;;6.03;2.95;;;18.70;68.10;;;;;;5065795;28;20051;-61
2023/09/18 02:31:11;;;;;;;4.18;3.03;;;18.70;68.30;;;;;;5063984;28;20374;-62
2023/09/18 02:33:38;;;;;;;4.93;2.92;;;18.70;68.20;;;;;;5070388;28;20028;-62
2023/09/18 02:36:04;;;;;;;4.30;3.08;;;18.70;68.50;;;;;;5064056;28;20025;-61
2023/09/18 02:38:32;;;;;;;4.70;3.33;;;18.70;68.80;;;;;;5071762;28;20027;-61
2023/09/18 02:40:58;;;;;;;4.32;2.90;;;18.70;69.30;;;;;;5067861;28;20032;-61
2023/09/18 02:43:24;;;;;;;4.07;2.65;;;18.70;69.40;;;;;;5064312;28;20020;-61
2023/09/18 02:45:50;;;;;;;5.32;3.28;;;18.70;69.40;;;;;;5071745;28;20101;-60
2023/09/18 02:48:16;;;;;;;5.50;3.00;;;18.80;69.40;;;;;;5062325;28;20031;-61
2023/09/18 02:50:43;;;;;;;5.32;3.00;;;18.80;69.30;;;;;;5060527;28;20107;-62
2023/09/18 02:53:21;;;;;;;4.13;3.08;;;18.80;69.00;;;;;;5067736;28;20729;-61
2023/09/18 02:55:49;;;;;;;3.47;2.90;;;18.80;69.40;;;;;;5069918;28;20031;-62
2023/09/18 02:58:16;;;;;;;3.63;2.67;;;18.80;69.10;;;;;;5070264;28;20100;-62
2023/09/18 03:00:46;;;;;;;3.85;2.88;;;18.90;69.10;;;;;;5068683;28;20023;-61
2023/09/18 03:03:13;;;;;;;3.95;2.92;;;18.80;69.40;;;;;;5066956;28;20024;-61
2023/09/18 03:05:40;;;;;;;5.43;3.13;;;18.90;69.20;;;;;;5061135;28;20036;-61
2023/09/18 03:08:06;;;;;;;4.00;3.20;;;18.90;69.40;;;;;;5061274;28;20035;-62
2023/09/18 03:10:36;;;;;;;4.78;2.97;;;18.90;69.40;;;;;;5064931;28;20029;-62
2023/09/18 03:13:02;;;;;;;4.82;2.90;;;18.90;69.70;;;;;;5056514;28;20056;-62
2023/09/18 03:15:30;;;;;;;4.53;3.17;;;18.90;69.20;;;;;;5069033;28;20053;-62
2023/09/18 03:17:57;;;;;;;5.78;3.35;;;18.90;69.30;;;;;;5058120;28;20423;-62
2023/09/18 03:20:26;;;;;;;5.47;3.30;;;18.90;69.30;;;;;;5070576;28;20098;-60
2023/09/18 03:22:59;;;;;;;6.88;3.30;;;18.90;69.50;;;;;;5070312;28;20417;-61
2023/09/18 03:25:26;;;;;;;3.78;2.97;;;18.90;69.30;;;;;;5067852;28;20080;-61
2023/09/18 03:27:53;;;;;;;3.25;2.83;;;18.90;69.50;;;;;;5064692;28;20059;-62
2023/09/18 03:30:20;;;;;;;5.78;3.00;;;18.90;69.70;;;;;;5067061;28;20040;-61
2023/09/18 03:32:48;;;;;;;15.30;3.05;;;18.80;69.60;;;;;;5062597;28;20111;-61
2023/09/18 03:35:20;;;;;;;4.55;2.67;;;18.90;69.70;;;;;;5070800;28;20033;-61
2023/09/18 03:37:46;;;;;;;6.07;3.60;;;18.80;69.80;;;;;;5067001;28;20063;-62
2023/09/18 03:40:12;;;;;;;6.35;3.35;;;18.90;70.00;;;;;;5069711;28;20028;-61
2023/09/18 03:42:38;;;;;;;4.68;3.40;;;18.80;70.20;;;;;;5063912;28;20019;-61
2023/09/18 03:45:06;;;;;;;5.95;3.35;;;18.80;70.10;;;;;;5067761;28;20028;-61
2023/09/18 03:47:32;;;;;;;4.45;3.65;;;18.80;70.40;;;;;;5060699;28;20079;-62
2023/09/18 03:49:57;;;;;;;4.15;3.40;;;18.80;70.30;;;;;;5062123;28;20028;-62
2023/09/18 03:52:23;;;;;;;5.65;3.67;;;18.80;70.40;;;;;;5056971;28;20537;-62
2023/09/18 03:54:49;;;;;;;4.07;3.67;;;18.80;70.50;;;;;;5070623;28;20071;-61
2023/09/18 03:57:15;;;;;;;5.28;3.88;;;18.90;70.60;;;;;;5070954;28;20466;-61
2023/09/18 03:59:40;;;;;;;7.90;4.20;;;18.80;70.60;;;;;;5070545;28;20469;-61
2023/09/18 04:02:06;;;;;;;6.28;3.72;;;18.80;70.80;;;;;;5065817;28;20039;-61
2023/09/18 04:04:32;;;;;;;5.40;3.70;;;18.80;70.80;;;;;;5062123;28;20497;-61
2023/09/18 04:06:57;;;;;;;5.50;3.83;;;18.80;70.80;;;;;;5058006;28;20038;-61
2023/09/18 04:09:23;;;;;;;6.97;3.83;;;18.80;70.90;;;;;;5069493;28;20424;-61
2023/09/18 04:11:49;;;;;;;5.05;3.50;;;18.80;70.80;;;;;;5077903;28;20056;-61
2023/09/18 04:14:15;;;;;;;3.70;3.40;;;18.80;70.70;;;;;;5071041;28;20556;-62
2023/09/18 04:16:41;;;;;;;4.72;3.38;;;18.80;70.50;;;;;;5067664;28;20028;-62
2023/09/18 04:19:08;;;;;;;4.05;3.45;;;18.80;70.30;;;;;;5069753;28;20116;-61
2023/09/18 04:21:33;;;;;;;4.78;3.42;;;18.80;70.10;;;;;;5072731;28;20021;-62
2023/09/18 04:23:59;;;;;;;7.88;3.70;;;18.80;70.10;;;;;;5069297;28;20478;-61
2023/09/18 04:26:29;;;;;;;5.25;3.40;;;18.80;70.10;;;;;;5068341;28;20081;-61
2023/09/18 04:28:56;;;;;;;4.00;3.60;;;18.80;70.10;;;;;;5073731;28;20352;-61
2023/09/18 04:31:21;;;;;;;5.30;3.30;;;18.80;70.10;;;;;;5072005;28;20029;-60
2023/09/18 04:33:48;;;;;;;5.35;3.60;;;18.70;70.10;;;;;;5069307;28;20490;-61
2023/09/18 04:36:13;;;;;;;5.03;3.42;;;18.70;70.20;;;;;;5065790;28;20029;-61
2023/09/18 04:38:39;;;;;;;3.63;3.30;;;18.70;70.40;;;;;;5066000;28;20420;-61
2023/09/18 04:41:07;;;;;;;4.32;3.55;;;18.70;70.50;;;;;;5066802;28;20017;-61
2023/09/18 04:43:34;;;;;;;3.92;3.50;;;18.80;70.50;;;;;;5059584;28;20120;-62
2023/09/18 04:46:02;;;;;;;4.07;3.10;;;18.80;70.60;;;;;;5068649;28;20083;-61
2023/09/18 04:48:27;;;;;;;3.75;3.22;;;18.70;70.50;;;;;;5065837;28;20029;-61
2023/09/18 04:50:53;;;;;;;6.43;4.03;;;18.70;70.60;;;;;;5063785;28;20555;-61
2023/09/18 04:53:18;;;;;;;4.65;3.40;;;18.80;70.70;;;;;;5067543;28;20063;-61
2023/09/18 04:55:49;;;;;;;5.38;3.38;;;18.70;70.60;;;;;;5070679;28;20025;-61
2023/09/18 04:58:15;;;;;;;6.75;3.50;;;18.70;70.80;;;;;;5065353;28;20066;-61
2023/09/18 05:00:41;;;;;;;5.78;3.88;;;18.70;70.80;;;;;;5065429;28;20470;-61
2023/09/18 05:03:08;;;;;;;4.50;3.63;;;18.80;71.20;;;;;;5065458;28;20038;-62
2023/09/18 05:05:34;;;;;;;5.03;3.92;;;18.80;71.20;;;;;;5072445;28;20028;-60
2023/09/18 05:08:03;;;;;;;6.55;3.65;;;18.80;71.40;;;;;;5060283;28;20055;-62
2023/09/18 05:10:29;;;;;;;8.35;3.85;;;18.80;71.60;;;;;;5074190;28;20071;-62
2023/09/18 05:12:58;;;;;;;5.15;4.05;;;18.80;71.70;;;;;;5066705;28;20086;-62
2023/09/18 05:15:26;;;;;;;5.00;3.72;;;18.80;71.70;;;;;;5068246;28;20029;-62
2023/09/18 05:17:55;;;;;;;11.00;4.22;;;18.80;71.60;;;;;;5073673;28;20051;-63
2023/09/18 05:20:23;;;;;;;6.47;4.25;;;18.80;71.50;;;;;;5070558;28;20024;-62
2023/09/18 05:22:50;;;;;;;10.85;3.70;;;18.90;71.50;;;;;;5060245;28;20021;-60
2023/09/18 05:25:16;;;;;;;5.38;4.07;;;18.90;71.50;;;;;;5065533;28;20036;-61
2023/09/18 05:27:45;;;;;;;7.20;4.43;;;18.90;71.60;;;;;;5071205;28;20039;-62
2023/09/18 05:30:16;;;;;;;8.90;6.30;;;18.90;71.50;;;;;;5066918;28;20060;-62
2023/09/18 05:32:43;;;;;;;8.88;6.40;;;18.90;71.80;;;;;;5058457;28;21049;-62
2023/09/18 05:35:10;;;;;;;10.65;5.55;;;18.90;71.80;;;;;;5062755;28;20040;-62
2023/09/18 05:37:39;;;;;;;7.35;5.45;;;18.90;71.90;;;;;;5064308;28;20020;-62
2023/09/18 05:40:09;;;;;;;10.07;6.13;;;18.90;72.20;;;;;;5068314;28;20107;-61
2023/09/18 05:42:42;;;;;;;10.20;6.35;;;18.90;72.30;;;;;;5069633;28;20032;-61
2023/09/18 05:45:09;;;;;;;12.20;6.22;;;19.00;72.10;;;;;;4993302;28;20024;-61
2023/09/18 05:47:38;;;;;;;8.18;5.72;;;19.00;71.70;;;;;;5060754;28;20025;-61
2023/09/18 05:50:06;;;;;;;7.20;5.90;;;19.00;71.60;;;;;;5061858;28;20021;-61
2023/09/18 05:52:33;;;;;;;9.13;5.55;;;19.00;71.60;;;;;;5062249;28;20614;-60
2023/09/18 05:54:59;;;;;;;6.82;5.25;;;19.00;71.60;;;;;;5058475;28;20041;-61
2023/09/18 05:57:25;;;;;;;7.00;4.30;;;19.00;71.60;;;;;;5063293;28;20013;-63
2023/09/18 05:59:50;;;;;;;5.70;4.28;;;19.00;71.50;;;;;;5070657;28;20404;-62
2023/09/18 06:02:16;;;;;;;5.55;4.55;;;19.00;71.60;;;;;;5069121;28;20093;-60
2023/09/18 06:04:43;;;;;;;7.30;4.60;;;19.00;71.60;;;;;;5071816;28;20020;-61
2023/09/18 06:07:08;;;;;;;6.13;4.18;;;19.00;71.60;;;;;;5062878;28;20515;-61
2023/09/18 06:09:34;;;;;;;7.35;4.32;;;19.10;71.60;;;;;;5066096;28;20115;-62
2023/09/18 06:12:00;;;;;;;4.25;3.80;;;19.10;71.40;;;;;;5063577;28;20088;-61
2023/09/18 06:14:26;;;;;;;5.13;4.10;;;19.10;71.40;;;;;;5061335;28;20044;-64
2023/09/18 06:16:51;;;;;;;9.18;4.60;;;19.10;71.40;;;;;;5061078;28;20035;-61
2023/09/18 06:19:17;;;;;;;7.38;4.63;;;19.20;71.60;;;;;;5070497;28;20024;-61
2023/09/18 06:21:44;;;;;;;9.73;4.47;;;19.30;71.80;;;;;;5064401;28;20099;-61
2023/09/18 06:24:09;;;;;;;5.85;4.65;;;19.20;72.00;;;;;;5068459;28;20040;-60
2023/09/18 06:26:35;;;;;;;4.70;4.13;;;19.30;72.00;;;;;;5057640;28;20062;-61
2023/09/18 06:29:02;;;;;;;7.90;4.30;;;19.40;72.00;;;;;;5064738;28;20078;-60
2023/09/18 06:31:28;;;;;;;6.72;4.53;;;19.50;72.00;;;;;;5054047;28;20471;-60
2023/09/18 06:33:54;;;;;;;6.63;4.35;;;19.50;72.00;;;;;;5067706;28;20395;-62
2023/09/18 06:36:19;;;;;;;6.90;4.75;;;19.70;72.00;;;;;;5067320;28;20040;-60
2023/09/18 06:38:45;;;;;;;10.13;4.60;;;19.80;71.90;;;;;;5059969;28;20071;-61
2023/09/18 06:41:11;;;;;;;14.63;4.35;;;19.90;72.00;;;;;;5068137;28;20542;-61
2023/09/18 06:43:36;;;;;;;11.10;4.35;;;20.00;72.20;;;;;;5063474;28;20487;-61
2023/09/18 06:46:04;;;;;;;17.13;4.75;;;20.20;72.20;;;;;;5061154;28;20063;-62
2023/09/18 06:48:32;;;;;;;9.90;4.18;;;20.30;72.10;;;;;;5065677;28;20578;-62
2023/09/18 06:50:59;;;;;;;13.50;4.68;;;20.50;71.80;;;;;;5066783;28;20028;-61
2023/09/18 06:53:28;;;;;;;7.90;4.40;;;20.60;71.40;;;;;;5067163;28;20032;-61
2023/09/18 06:55:54;;;;;;;11.88;4.78;;;20.60;71.10;;;;;;5066153;28;20032;-62
2023/09/18 06:58:20;;;;;;;15.30;4.63;;;20.70;71.70;;;;;;5062690;28;20021;-61
2023/09/18 07:00:47;;;;;;;11.50;4.60;;;20.80;70.80;;;;;;5067530;28;20020;-61
2023/09/18 07:03:12;;;;;;;6.90;4.10;;;20.90;70.90;;;;;;5063164;28;20107;-62
2023/09/18 07:05:40;;;;;;;9.55;4.63;;;21.00;70.80;;;;;;5065690;28;20593;-62
2023/09/18 07:08:09;;;;;;;9.32;4.55;;;21.10;70.70;;;;;;5063878;28;20029;-61
2023/09/18 07:10:35;;;;;;;9.32;4.57;;;21.20;70.60;;;;;;5072291;28;20368;-62
2023/09/18 07:13:01;;;;;;;11.50;4.93;;;21.40;70.80;;;;;;5062170;28;20047;-63
2023/09/18 07:15:27;;;;;;;6.68;4.43;;;21.60;70.50;;;;;;5067868;28;20033;-61
2023/09/18 07:17:52;;;;;;;11.88;4.65;;;21.70;70.10;;;;;;5066390;28;20034;-61
2023/09/18 07:20:18;;;;;;;8.90;4.18;;;21.80;69.80;;;;;;5070027;28;20767;-63
2023/09/18 07:22:47;;;;;;;4.32;3.70;;;21.90;69.50;;;;;;5061043;28;20369;-60
2023/09/18 07:25:13;;;;;;;5.22;3.80;;;22.00;69.30;;;;;;5061781;28;20027;-61
2023/09/18 07:27:43;;;;;;;5.07;4.25;;;22.00;68.90;;;;;;5062529;28;20028;-61
2023/09/18 07:30:16;;;;;;;9.90;4.00;;;22.10;68.70;;;;;;5059537;28;20044;-61
2023/09/18 07:32:42;;;;;;;7.53;4.40;;;22.20;68.60;;;;;;5066012;28;20103;-61
2023/09/18 07:35:13;;;;;;;8.07;4.20;;;22.30;68.50;;;;;;5066164;28;20044;-62
2023/09/18 07:37:38;;;;;;;5.07;4.32;;;22.30;68.40;;;;;;5066294;28;20096;-61
2023/09/18 07:40:08;;;;;;;5.25;4.03;;;22.40;68.30;;;;;;5070367;28;20177;-61
2023/09/18 07:42:33;;;;;;;6.63;4.40;;;22.50;68.40;;;;;;5063759;28;20451;-61
2023/09/18 07:44:59;;;;;;;11.45;4.72;;;22.50;68.20;;;;;;5061820;28;20043;-62
2023/09/18 07:47:25;;;;;;;5.97;4.63;;;22.70;68.20;;;;;;5073416;28;20521;-62
2023/09/18 07:49:51;;;;;;;5.53;4.40;;;22.70;67.80;;;;;;5071279;28;20036;-61
2023/09/18 07:52:17;;;;;;;7.80;4.43;;;22.80;67.50;;;;;;5066191;28;20035;-61
2023/09/18 07:54:43;;;;;;;7.47;3.83;;;23.00;67.30;;;;;;5060893;28;20035;-63
2023/09/18 07:57:09;;;;;;;8.73;3.80;;;23.10;67.10;;;;;;5064541;28;20098;-61
2023/09/18 07:59:36;;;;;;;7.75;3.60;;;23.10;67.10;;;;;;5063033;28;20032;-61
2023/09/18 08:02:02;;;;;;;5.57;3.28;;;23.20;66.90;;;;;;5070043;28;20029;-62
2023/09/18 08:04:30;;;;;;;5.35;3.33;;;23.30;66.40;;;;;;5062313;28;20071;-62
2023/09/18 08:06:56;;;;;;;7.60;3.45;;;23.30;65.90;;;;;;5068502;28;20027;-61
2023/09/18 08:09:22;;;;;;;8.60;3.17;;;23.40;65.80;;;;;;5067892;28;20024;-61
2023/09/18 08:11:49;;;;;;;8.25;3.50;;;23.50;65.80;;;;;;5067527;28;20511;-61
2023/09/18 08:14:16;;;;;;;8.80;3.80;;;23.50;65.60;;;;;;5069029;28;20038;-62
2023/09/18 08:16:41;;;;;;;8.48;3.35;;;23.60;65.20;;;;;;5061374;28;20536;-61
2023/09/18 08:19:07;;;;;;;6.15;3.30;;;23.70;64.90;;;;;;5068008;28;20028;-61
2023/09/18 08:21:33;;;;;;;7.28;3.50;;;23.80;64.60;;;;;;5063840;28;20028;-62
2023/09/18 08:23:59;;;;;;;7.88;4.05;;;23.80;64.80;;;;;;5069752;28;20048;-62
2023/09/18 08:26:28;;;;;;;11.30;3.80;;;23.90;64.70;;;;;;5069024;28;20100;-61
2023/09/18 08:28:54;;;;;;;5.10;3.22;;;23.90;64.50;;;;;;5065080;28;20032;-61
2023/09/18 08:31:19;;;;;;;5.53;3.05;;;24.00;64.30;;;;;;5061159;28;20040;-62
2023/09/18 08:33:45;;;;;;;7.50;3.50;;;24.00;63.90;;;;;;5066402;28;20040;-62
2023/09/18 08:36:12;;;;;;;9.73;3.90;;;24.00;63.70;;;;;;5063121;28;20037;-62
2023/09/18 08:38:37;;;;;;;8.48;3.65;;;24.00;63.60;;;;;;5061206;28;20113;-62
2023/09/18 08:41:04;;;;;;;11.40;3.92;;;24.10;63.50;;;;;;5067671;28;20029;-62
2023/09/18 08:43:32;;;;;;;7.57;3.70;;;24.00;63.50;;;;;;5065774;28;20027;-62
2023/09/18 08:46:01;;;;;;;7.68;3.58;;;24.10;63.70;;;;;;4977018;28;20043;-61
2023/09/18 08:48:35;;;;;;;5.70;3.17;;;24.10;63.50;;;;;;5067025;28;20250;-61
2023/09/18 08:51:05;;;;;;;8.45;3.35;;;24.10;63.50;;;;;;5066488;28;20036;-62
2023/09/18 08:53:35;;;;;;;12.32;3.53;;;24.20;63.10;;;;;;5057984;28;20104;-61
2023/09/18 08:56:03;;;;;;;9.20;3.20;;;24.20;62.90;;;;;;5067415;28;20023;-61
2023/09/18 08:58:35;;;;;;;9.98;2.90;;;24.20;62.80;;;;;;5065376;28;20029;-61
2023/09/18 09:01:09;;;;;;;7.25;3.10;;;24.20;62.60;;;;;;5062879;28;20103;-61
2023/09/18 09:03:47;;;;;;;8.77;2.92;;;24.20;62.60;;;;;;5061810;28;20490;-61
2023/09/18 09:06:13;;;;;;;9.40;2.90;;;24.20;62.70;;;;;;5067364;28;20028;-61
2023/09/18 09:08:39;;;;;;;7.25;2.83;;;24.20;62.70;;;;;;5068463;28;20505;-61
2023/09/18 09:11:05;;;;;;;6.63;2.75;;;24.30;62.60;;;;;;5064789;28;20021;-61
2023/09/18 09:13:31;;;;;;;7.00;2.50;;;24.30;62.40;;;;;;5069817;28;20501;-61
2023/09/18 09:15:58;;;;;;;11.93;2.38;;;24.40;62.60;;;;;;5061501;28;20033;-62
2023/09/18 09:18:28;;;;;;;9.60;2.60;;;24.40;62.40;;;;;;5065518;28;20054;-61
2023/09/18 09:20:59;;;;;;;14.32;2.70;;;24.50;62.20;;;;;;5066132;28;20032;-62
2023/09/18 09:23:51;;;;;;;15.32;2.13;;;24.50;62.10;;;;;;5068400;28;20047;-61
2023/09/18 09:26:19;;;;;;;5.63;1.85;;;24.60;61.80;;;;;;5063269;28;20040;-62
2023/09/18 09:28:45;;;;;;;7.20;2.22;;;24.70;61.70;;;;;;5059849;28;20024;-61
2023/09/18 09:31:11;;;;;;;10.27;1.38;;;24.70;60.10;;;;;;5067223;28;20047;-62
2023/09/18 09:33:40;;;;;;;5.28;1.17;;;24.80;58.90;;;;;;5066893;28;20033;-62
2023/09/18 09:36:06;;;;;;;6.53;1.20;;;24.80;57.80;;;;;;5059316;28;20029;-62
2023/09/18 09:38:33;;;;;;;2.50;0.90;;;24.90;56.20;;;;;;5059785;28;20055;-63
2023/09/18 09:41:06;;;;;;;3.60;0.93;;;24.80;55.80;;;;;;5059350;28;20040;-64
2023/09/18 09:43:32;;;;;;;4.78;1.05;;;24.90;55.60;;;;;;5066373;28;20685;-62
2023/09/18 09:46:00;;;;;;;2.67;0.90;;;24.90;55.50;;;;;;4975359;28;20056;-62
2023/09/18 09:48:26;;;;;;;2.30;0.85;;;24.80;55.50;;;;;;5067967;28;20107;-62
2023/09/18 09:50:55;;;;;;;2.35;0.82;;;24.90;55.60;;;;;;5067570;28;20205;-62
2023/09/18 09:53:47;;;;;;;3.03;1.00;;;24.80;55.20;;;;;;5066385;28;20046;-63
2023/09/18 09:56:19;;;;;;;3.38;0.70;;;24.80;55.10;;;;;;5066717;28;20024;-61
2023/09/18 09:58:59;;;;;;;4.53;0.90;;;24.80;55.50;;;;;;5071719;28;20028;-61
2023/09/18 10:01:27;;;;;;;2.95;0.70;;;24.80;55.40;;;;;;5066522;28;20492;-62
2023/09/18 10:03:54;;;;;;;5.05;0.88;;;24.80;55.70;;;;;;5060920;28;20033;-61
2023/09/18 10:06:21;;;;;;;4.07;1.05;;;24.80;55.40;;;;;;5067684;28;20027;-63
2023/09/18 10:08:47;;;;;;;3.95;0.90;;;24.80;56.10;;;;;;5062725;28;20025;-62
2023/09/18 10:11:16;;;;;;;3.53;1.10;;;24.80;55.60;;;;;;5066624;28;20039;-61
2023/09/18 10:14:04;;;;;;;2.45;0.80;;;24.90;55.50;;;;;;5064451;28;20127;-63
2023/09/18 10:16:32;;;;;;;3.30;0.90;;;25.00;55.60;;;;;;5050305;28;20067;-61
2023/09/18 10:19:21;;;;;;;4.38;0.90;;;24.90;55.80;;;;;;5065328;28;20046;-62
2023/09/18 10:22:00;;;;;;;2.85;0.68;;;24.90;55.20;;;;;;5064668;28;20021;-61
2023/09/18 10:24:31;;;;;;;3.50;0.85;;;24.90;55.50;;;;;;5062050;28;20479;-61
2023/09/18 10:27:04;;;;;;;5.93;1.38;;;24.90;56.00;;;;;;5063606;28;20023;-61
2023/09/18 10:29:32;;;;;;;4.40;1.00;;;24.80;55.70;;;;;;5057661;28;20035;-62
2023/09/18 10:31:58;;;;;;;5.57;0.93;;;24.70;55.50;;;;;;5060866;28;20024;-62
2023/09/18 10:34:25;;;;;;;3.03;0.70;;;24.60;55.70;;;;;;5067061;28;20501;-61
2023/09/18 10:36:52;;;;;;;2.53;0.80;;;24.50;56.20;;;;;;5063148;28;20387;-61
2023/09/18 10:39:23;;;;;;;2.67;0.88;;;24.40;56.50;;;;;;5063389;28;20028;-62
2023/09/18 10:41:52;;;;;;;5.10;0.98;;;24.20;56.70;;;;;;5065181;28;20086;-63
2023/09/18 10:44:19;;;;;;;3.53;0.90;;;24.10;56.90;;;;;;5059866;28;20046;-60
2023/09/18 10:46:46;;;;;;;4.35;0.85;;;24.00;57.70;;;;;;5000785;28;20029;-60
2023/09/18 10:49:12;;;;;;;4.90;0.90;;;23.90;57.80;;;;;;5061460;28;20060;-61
2023/09/18 10:51:42;;;;;;;2.22;0.80;;;23.80;58.00;;;;;;5052358;28;20071;-62
2023/09/18 10:54:14;;;;;;;3.22;0.90;;;23.70;58.40;;;;;;5071251;28;20036;-61
2023/09/18 10:56:44;;;;;;;5.10;0.90;;;23.60;59.40;;;;;;5063240;28;20468;-61
2023/09/18 10:59:09;;;;;;;3.28;1.00;;;23.50;59.40;;;;;;5068206;28;20060;-62
2023/09/18 11:01:36;;;;;;;2.95;0.90;;;23.40;59.80;;;;;;5061209;28;20052;-61
2023/09/18 11:04:07;;;;;;;3.22;0.95;;;23.30;59.80;;;;;;5065809;28;20033;-61
2023/09/18 11:06:55;;;;;;;1.77;0.73;;;23.30;60.10;;;;;;5068356;28;20432;-61
2023/09/18 11:09:28;;;;;;;3.97;0.85;;;23.20;60.20;;;;;;5065881;28;20032;-61
2023/09/18 11:12:05;;;;;;;4.82;0.82;;;23.10;60.50;;;;;;5066562;28;20367;-61
2023/09/18 11:14:46;;;;;;;5.07;0.73;;;23.00;60.80;;;;;;5070520;28;20059;-61
2023/09/18 11:17:37;;;;;;;3.47;0.90;;;22.90;61.20;;;;;;5067740;28;20475;-61
2023/09/18 11:20:09;;;;;;;1.23;0.60;;;22.90;60.70;;;;;;5061769;28;20040;-61
2023/09/18 11:22:36;;;;;;;1.27;0.70;;;22.80;60.80;;;;;;5060727;28;20023;-61
2023/09/18 11:25:34;;;;;;;3.45;0.70;;;22.70;61.10;;;;;;5063290;28;20044;-61
2023/09/18 11:28:02;;;;;;;2.05;0.65;;;22.60;62.10;;;;;;5062668;28;20094;-61
2023/09/18 11:30:28;;;;;;;0.85;0.60;;;22.40;61.60;;;;;;5061626;28;20055;-61
2023/09/18 11:32:55;;;;;;;1.80;0.70;;;22.30;62.20;;;;;;5061408;28;20021;-62
2023/09/18 11:35:21;;;;;;;2.70;0.57;;;22.20;62.60;;;;;;5062770;28;20107;-61
2023/09/18 11:38:03;;;;;;;0.60;0.45;;;22.20;62.70;;;;;;5058194;28;20083;-62
2023/09/18 11:40:41;;;;;;;3.28;0.52;;;22.10;62.80;;;;;;5059941;28;20108;-62
2023/09/18 11:43:29;;;;;;;3.40;0.60;;;22.00;63.40;;;;;;5058447;28;20105;-61
2023/09/18 11:45:56;;;;;;;2.15;0.50;;;21.90;64.40;;;;;;5060320;28;20174;-62
2023/09/18 11:48:28;;;;;;;2.58;1.20;;;21.80;63.90;;;;;;5067846;28;20024;-61
2023/09/18 11:50:59;;;;;;;3.65;1.17;;;21.70;64.20;;;;;;5067229;28;20020;-63
2023/09/18 11:53:27;;;;;;;6.07;0.60;;;21.70;64.70;;;;;;5064827;28;20031;-61
2023/09/18 11:55:53;;;;;;;3.65;0.88;;;21.60;65.30;;;;;;5057184;28;20475;-61
2023/09/18 11:58:23;;;;;;;4.63;0.70;;;21.60;65.20;;;;;;5066373;28;20028;-62
2023/09/18 12:00:49;;;;;;;2.60;0.82;;;21.50;65.20;;;;;;5064586;28;20089;-61
2023/09/18 12:03:24;;;;;;;3.22;0.95;;;21.50;65.20;;;;;;5061324;28;20047;-61
2023/09/18 12:05:59;;;;;;;3.03;0.80;;;21.40;65.90;;;;;;5050370;28;20040;-61
2023/09/18 12:08:26;;;;;;;3.05;0.80;;;21.30;66.00;;;;;;5065324;28;20052;-62
2023/09/18 12:10:53;;;;;;;2.45;0.77;;;21.30;66.10;;;;;;5063703;28;20038;-61
2023/09/18 12:13:19;;;;;;;5.30;0.80;;;21.20;66.10;;;;;;5063652;28;20048;-62
2023/09/18 12:15:45;;;;;;;4.47;0.90;;;21.30;66.50;;;;;;5061285;28;20081;-62
2023/09/18 12:18:12;;;;;;;3.25;1.15;;;21.20;66.70;;;;;;5062578;28;20363;-61
2023/09/18 12:20:44;;;;;;;3.70;0.80;;;21.10;66.70;;;;;;5061774;28;20096;-61
2023/09/18 12:23:10;;;;;;;3.45;0.90;;;21.10;67.10;;;;;;5068186;28;20115;-62
2023/09/18 12:25:35;;;;;;;8.90;1.25;;;21.10;67.20;;;;;;5057934;28;20108;-61
2023/09/18 12:28:03;;;;;;;3.00;1.00;;;21.00;67.50;;;;;;5068599;28;20045;-62
2023/09/18 12:30:31;;;;;;;3.90;1.30;;;20.90;67.80;;;;;;5070753;28;20032;-61
2023/09/18 12:33:01;;;;;;;5.97;1.00;;;20.90;68.00;;;;;;5065091;28;20451;-63
2023/09/18 12:35:30;;;;;;;1.80;0.98;;;20.90;68.20;;;;;;5063072;28;20040;-62
2023/09/18 12:38:04;;;;;;;3.47;1.15;;;20.80;68.40;;;;;;5069032;28;20024;-61
2023/09/18 12:40:32;;;;;;;5.30;1.35;;;20.80;69.50;;;;;;5060938;28;20027;-62
2023/09/18 12:42:59;;;;;;;6.38;1.45;;;20.70;68.80;;;;;;5069795;28;20021;-62
2023/09/18 12:45:26;;;;;;;3.05;1.13;;;20.70;69.00;;;;;;5070015;28;20033;-61
2023/09/18 12:47:54;;;;;;;3.83;1.20;;;20.70;69.40;;;;;;5071251;28;20035;-61
2023/09/18 12:50:19;;;;;;;5.00;1.10;;;20.70;69.30;;;;;;5065715;28;20032;-61